sensor_id;sensor_type;location;lat;lon;timestamp;temperature;humidity
21244;DHT22;10780;50.942;4.028;2022-10-31T00:01:20;14.70;99.90
21244;DHT22;10780;50.942;4.028;2022-10-31T00:03:46;14.60;99.90
21244;DHT22;10780;50.942;4.028;2022-10-31T00:06:13;14.50;99.90
21244;DHT22;10780;50.942;4.028;2022-10-31T00:08:38;14.30;99.90
21244;DHT22;10780;50.942;4.028;2022-10-31T00:11:08;14.20;99.90
21244;DHT22;10780;50.942;4.028;2022-10-31T00:13:34;14.10;99.90
21244;DHT22;10780;50.942;4.028;2022-10-31T00:15:59;14.00;99.90
21244;DHT22;10780;50.942;4.028;2022-10-31T00:18:25;14.00;99.90
21244;DHT22;10780;50.942;4.028;2022-10-31T00:21:01;14.00;99.90
21244;DHT22;10780;50.942;4.028;2022-10-31T00:23:28;13.90;99.90
21244;DHT22;10780;50.942;4.028;2022-10-31T00:25:59;13.90;99.90
21244;DHT22;10780;50.942;4.028;2022-10-31T00:28:25;13.90;99.90
21244;DHT22;10780;50.942;4.028;2022-10-31T00:30:50;13.90;99.90
21244;DHT22;10780;50.942;4.028;2022-10-31T00:33:16;13.90;99.90
21244;DHT22;10780;50.942;4.028;2022-10-31T00:35:41;13.90;99.90
21244;DHT22;10780;50.942;4.028;2022-10-31T00:38:07;13.80;99.90
21244;DHT22;10780;50.942;4.028;2022-10-31T00:40:32;13.70;99.90
21244;DHT22;10780;50.942;4.028;2022-10-31T00:42:58;13.70;99.90
21244;DHT22;10780;50.942;4.028;2022-10-31T00:45:23;13.60;99.90
21244;DHT22;10780;50.942;4.028;2022-10-31T00:47:49;13.60;99.90
21244;DHT22;10780;50.942;4.028;2022-10-31T00:50:14;13.60;99.90
21244;DHT22;10780;50.942;4.028;2022-10-31T00:52:40;13.50;99.90
21244;DHT22;10780;50.942;4.028;2022-10-31T00:55:06;13.50;99.90
21244;DHT22;10780;50.942;4.028;2022-10-31T00:57:31;13.50;99.90
21244;DHT22;10780;50.942;4.028;2022-10-31T00:59:57;13.60;99.90
21244;DHT22;10780;50.942;4.028;2022-10-31T01:02:22;13.60;99.90
21244;DHT22;10780;50.942;4.028;2022-10-31T01:04:48;13.50;99.90
21244;DHT22;10780;50.942;4.028;2022-10-31T01:07:14;13.50;99.90
21244;DHT22;10780;50.942;4.028;2022-10-31T01:09:39;13.50;99.90
21244;DHT22;10780;50.942;4.028;2022-10-31T01:12:05;13.50;99.90
21244;DHT22;10780;50.942;4.028;2022-10-31T01:14:31;13.40;99.90
21244;DHT22;10780;50.942;4.028;2022-10-31T01:16:56;13.40;99.90
21244;DHT22;10780;50.942;4.028;2022-10-31T01:19:22;13.30;99.90
21244;DHT22;10780;50.942;4.028;2022-10-31T01:21:48;13.30;99.90
21244;DHT22;10780;50.942;4.028;2022-10-31T01:24:13;13.40;99.90
21244;DHT22;10780;50.942;4.028;2022-10-31T01:26:39;13.40;99.90
21244;DHT22;10780;50.942;4.028;2022-10-31T01:29:07;13.30;99.90
21244;DHT22;10780;50.942;4.028;2022-10-31T01:31:38;13.20;99.90
21244;DHT22;10780;50.942;4.028;2022-10-31T01:34:05;13.20;99.90
21244;DHT22;10780;50.942;4.028;2022-10-31T01:36:33;13.20;99.90
21244;DHT22;10780;50.942;4.028;2022-10-31T01:39:01;13.10;99.90
21244;DHT22;10780;50.942;4.028;2022-10-31T01:41:30;13.10;99.90
21244;DHT22;10780;50.942;4.028;2022-10-31T01:44:01;13.20;99.90
21244;DHT22;10780;50.942;4.028;2022-10-31T01:48:59;13.10;99.90
21244;DHT22;10780;50.942;4.028;2022-10-31T01:51:30;13.00;99.90
21244;DHT22;10780;50.942;4.028;2022-10-31T01:54:07;12.90;99.90
21244;DHT22;10780;50.942;4.028;2022-10-31T01:56:36;12.70;99.90
21244;DHT22;10780;50.942;4.028;2022-10-31T01:59:05;12.60;99.90
21244;DHT22;10780;50.942;4.028;2022-10-31T02:01:32;12.60;99.90
21244;DHT22;10780;50.942;4.028;2022-10-31T02:03:57;12.60;99.90
21244;DHT22;10780;50.942;4.028;2022-10-31T02:06:46;12.60;99.90
21244;DHT22;10780;50.942;4.028;2022-10-31T02:09:14;12.70;99.90
21244;DHT22;10780;50.942;4.028;2022-10-31T02:11:41;12.70;99.90
21244;DHT22;10780;50.942;4.028;2022-10-31T02:14:07;12.70;99.90
21244;DHT22;10780;50.942;4.028;2022-10-31T02:16:33;12.70;99.90
21244;DHT22;10780;50.942;4.028;2022-10-31T02:18:58;12.60;99.90
21244;DHT22;10780;50.942;4.028;2022-10-31T02:21:53;12.60;99.90
21244;DHT22;10780;50.942;4.028;2022-10-31T02:30:23;12.50;99.90
21244;DHT22;10780;50.942;4.028;2022-10-31T02:35:46;12.40;99.90
21244;DHT22;10780;50.942;4.028;2022-10-31T02:38:38;12.50;99.90
21244;DHT22;10780;50.942;4.028;2022-10-31T02:47:17;12.50;99.90
21244;DHT22;10780;50.942;4.028;2022-10-31T02:52:32;12.50;99.90
21244;DHT22;10780;50.942;4.028;2022-10-31T02:54:58;12.50;99.90
21244;DHT22;10780;50.942;4.028;2022-10-31T02:57:28;12.50;99.90
21244;DHT22;10780;50.942;4.028;2022-10-31T03:00:02;12.50;99.90
21244;DHT22;10780;50.942;4.028;2022-10-31T03:13:48;12.70;99.90
21244;DHT22;10780;50.942;4.028;2022-10-31T03:16:18;12.60;99.90
21244;DHT22;10780;50.942;4.028;2022-10-31T03:19:05;12.60;99.90
21244;DHT22;10780;50.942;4.028;2022-10-31T03:21:57;12.60;99.90
21244;DHT22;10780;50.942;4.028;2022-10-31T03:24:27;12.60;99.90
21244;DHT22;10780;50.942;4.028;2022-10-31T03:26:57;12.60;99.90
21244;DHT22;10780;50.942;4.028;2022-10-31T03:29:27;12.70;99.90
21244;DHT22;10780;50.942;4.028;2022-10-31T03:31:57;12.70;99.90
21244;DHT22;10780;50.942;4.028;2022-10-31T03:34:25;12.70;99.90
21244;DHT22;10780;50.942;4.028;2022-10-31T03:36:55;12.60;99.90
21244;DHT22;10780;50.942;4.028;2022-10-31T03:39:22;12.60;99.90
21244;DHT22;10780;50.942;4.028;2022-10-31T03:41:58;12.60;99.90
21244;DHT22;10780;50.942;4.028;2022-10-31T03:44:26;12.50;99.90
21244;DHT22;10780;50.942;4.028;2022-10-31T03:46:52;12.50;99.90
21244;DHT22;10780;50.942;4.028;2022-10-31T03:49:18;12.50;99.90
21244;DHT22;10780;50.942;4.028;2022-10-31T03:52:02;12.40;99.90
21244;DHT22;10780;50.942;4.028;2022-10-31T03:54:45;12.30;99.90
21244;DHT22;10780;50.942;4.028;2022-10-31T03:57:19;12.40;99.90
21244;DHT22;10780;50.942;4.028;2022-10-31T03:59:58;12.30;99.90
21244;DHT22;10780;50.942;4.028;2022-10-31T04:02:28;12.40;99.90
21244;DHT22;10780;50.942;4.028;2022-10-31T04:04:56;12.40;99.90
21244;DHT22;10780;50.942;4.028;2022-10-31T04:07:27;12.40;99.90
21244;DHT22;10780;50.942;4.028;2022-10-31T04:09:53;12.40;99.90
21244;DHT22;10780;50.942;4.028;2022-10-31T04:12:21;12.50;99.90
21244;DHT22;10780;50.942;4.028;2022-10-31T04:14:49;12.50;99.90
21244;DHT22;10780;50.942;4.028;2022-10-31T04:17:18;12.50;99.90
21244;DHT22;10780;50.942;4.028;2022-10-31T04:19:45;12.60;99.90
21244;DHT22;10780;50.942;4.028;2022-10-31T04:22:11;12.60;99.90
21244;DHT22;10780;50.942;4.028;2022-10-31T04:24:38;12.50;99.90
21244;DHT22;10780;50.942;4.028;2022-10-31T04:27:04;12.40;99.90
21244;DHT22;10780;50.942;4.028;2022-10-31T04:29:30;12.30;99.90
21244;DHT22;10780;50.942;4.028;2022-10-31T04:31:55;12.30;99.90
21244;DHT22;10780;50.942;4.028;2022-10-31T04:34:21;12.30;99.90
21244;DHT22;10780;50.942;4.028;2022-10-31T04:36:46;12.30;99.90
21244;DHT22;10780;50.942;4.028;2022-10-31T04:39:12;12.30;99.90
21244;DHT22;10780;50.942;4.028;2022-10-31T04:41:38;12.20;99.90
21244;DHT22;10780;50.942;4.028;2022-10-31T04:44:03;12.20;99.90
21244;DHT22;10780;50.942;4.028;2022-10-31T04:46:29;12.20;99.90
21244;DHT22;10780;50.942;4.028;2022-10-31T04:48:55;12.40;99.90
21244;DHT22;10780;50.942;4.028;2022-10-31T04:51:20;12.30;99.90
21244;DHT22;10780;50.942;4.028;2022-10-31T04:53:46;12.30;99.90
21244;DHT22;10780;50.942;4.028;2022-10-31T04:56:11;12.30;99.90
21244;DHT22;10780;50.942;4.028;2022-10-31T04:58:37;12.30;99.90
21244;DHT22;10780;50.942;4.028;2022-10-31T05:01:02;12.30;99.90
21244;DHT22;10780;50.942;4.028;2022-10-31T05:03:28;12.30;99.90
21244;DHT22;10780;50.942;4.028;2022-10-31T05:05:54;12.30;99.90
21244;DHT22;10780;50.942;4.028;2022-10-31T05:08:19;12.20;99.90
21244;DHT22;10780;50.942;4.028;2022-10-31T05:10:45;12.20;99.90
21244;DHT22;10780;50.942;4.028;2022-10-31T05:13:10;12.10;99.90
21244;DHT22;10780;50.942;4.028;2022-10-31T05:15:36;12.00;99.90
21244;DHT22;10780;50.942;4.028;2022-10-31T05:18:02;11.90;99.90
21244;DHT22;10780;50.942;4.028;2022-10-31T05:20:29;11.80;99.90
21244;DHT22;10780;50.942;4.028;2022-10-31T05:22:56;11.80;99.90
21244;DHT22;10780;50.942;4.028;2022-10-31T05:25:24;11.80;99.90
21244;DHT22;10780;50.942;4.028;2022-10-31T05:27:52;11.80;99.90
21244;DHT22;10780;50.942;4.028;2022-10-31T05:30:27;11.80;99.90
21244;DHT22;10780;50.942;4.028;2022-10-31T05:32:53;11.80;99.90
21244;DHT22;10780;50.942;4.028;2022-10-31T05:35:23;11.80;99.90
21244;DHT22;10780;50.942;4.028;2022-10-31T05:37:49;11.80;99.90
21244;DHT22;10780;50.942;4.028;2022-10-31T05:40:16;11.80;99.90
21244;DHT22;10780;50.942;4.028;2022-10-31T05:42:43;12.00;99.90
21244;DHT22;10780;50.942;4.028;2022-10-31T05:45:10;12.00;99.90
21244;DHT22;10780;50.942;4.028;2022-10-31T05:47:36;12.00;99.90
21244;DHT22;10780;50.942;4.028;2022-10-31T05:50:03;12.10;99.90
21244;DHT22;10780;50.942;4.028;2022-10-31T05:52:28;12.10;99.90
21244;DHT22;10780;50.942;4.028;2022-10-31T05:54:54;12.10;99.90
21244;DHT22;10780;50.942;4.028;2022-10-31T05:57:19;12.20;99.90
21244;DHT22;10780;50.942;4.028;2022-10-31T05:59:45;12.30;99.90
21244;DHT22;10780;50.942;4.028;2022-10-31T06:02:11;12.40;99.90
21244;DHT22;10780;50.942;4.028;2022-10-31T06:04:36;12.50;99.90
21244;DHT22;10780;50.942;4.028;2022-10-31T06:07:02;12.50;99.90
21244;DHT22;10780;50.942;4.028;2022-10-31T06:09:27;12.60;99.90
21244;DHT22;10780;50.942;4.028;2022-10-31T06:11:53;12.60;99.90
21244;DHT22;10780;50.942;4.028;2022-10-31T06:14:18;12.60;99.90
21244;DHT22;10780;50.942;4.028;2022-10-31T06:16:44;12.70;99.90
21244;DHT22;10780;50.942;4.028;2022-10-31T06:19:10;12.80;99.90
21244;DHT22;10780;50.942;4.028;2022-10-31T06:21:35;12.80;99.90
21244;DHT22;10780;50.942;4.028;2022-10-31T06:24:01;12.80;99.90
21244;DHT22;10780;50.942;4.028;2022-10-31T06:26:26;13.00;99.90
21244;DHT22;10780;50.942;4.028;2022-10-31T06:28:52;13.00;99.90
21244;DHT22;10780;50.942;4.028;2022-10-31T06:31:17;13.00;99.90
21244;DHT22;10780;50.942;4.028;2022-10-31T06:33:43;13.10;99.90
21244;DHT22;10780;50.942;4.028;2022-10-31T06:36:09;13.00;99.90
21244;DHT22;10780;50.942;4.028;2022-10-31T06:38:35;13.00;99.90
21244;DHT22;10780;50.942;4.028;2022-10-31T06:41:04;13.00;99.90
21244;DHT22;10780;50.942;4.028;2022-10-31T06:43:30;12.90;99.90
21244;DHT22;10780;50.942;4.028;2022-10-31T06:45:56;12.90;99.90
21244;DHT22;10780;50.942;4.028;2022-10-31T06:48:23;13.00;99.90
21244;DHT22;10780;50.942;4.028;2022-10-31T06:50:48;13.10;99.90
21244;DHT22;10780;50.942;4.028;2022-10-31T06:53:14;13.20;99.90
21244;DHT22;10780;50.942;4.028;2022-10-31T06:55:41;13.30;99.90
21244;DHT22;10780;50.942;4.028;2022-10-31T06:58:08;13.30;99.90
21244;DHT22;10780;50.942;4.028;2022-10-31T07:00:33;13.30;99.90
21244;DHT22;10780;50.942;4.028;2022-10-31T07:03:02;13.40;99.90
21244;DHT22;10780;50.942;4.028;2022-10-31T07:05:28;13.40;99.90
21244;DHT22;10780;50.942;4.028;2022-10-31T07:07:56;13.50;99.90
21244;DHT22;10780;50.942;4.028;2022-10-31T07:10:23;13.50;99.90
21244;DHT22;10780;50.942;4.028;2022-10-31T07:12:54;13.60;99.90
21244;DHT22;10780;50.942;4.028;2022-10-31T07:15:20;13.80;99.90
21244;DHT22;10780;50.942;4.028;2022-10-31T07:17:46;13.80;99.90
21244;DHT22;10780;50.942;4.028;2022-10-31T07:20:11;13.90;99.90
21244;DHT22;10780;50.942;4.028;2022-10-31T07:22:37;14.00;99.90
21244;DHT22;10780;50.942;4.028;2022-10-31T07:25:03;14.00;99.90
21244;DHT22;10780;50.942;4.028;2022-10-31T07:27:34;14.10;99.90
21244;DHT22;10780;50.942;4.028;2022-10-31T07:30:00;14.10;99.90
21244;DHT22;10780;50.942;4.028;2022-10-31T07:32:25;14.20;99.90
21244;DHT22;10780;50.942;4.028;2022-10-31T07:34:51;14.40;99.90
21244;DHT22;10780;50.942;4.028;2022-10-31T07:37:16;14.30;99.90
21244;DHT22;10780;50.942;4.028;2022-10-31T07:39:42;14.40;99.90
21244;DHT22;10780;50.942;4.028;2022-10-31T07:42:08;14.50;99.90
21244;DHT22;10780;50.942;4.028;2022-10-31T07:44:33;14.50;99.90
21244;DHT22;10780;50.942;4.028;2022-10-31T07:46:59;14.50;99.90
21244;DHT22;10780;50.942;4.028;2022-10-31T07:49:24;14.50;99.90
21244;DHT22;10780;50.942;4.028;2022-10-31T07:51:50;14.50;99.90
21244;DHT22;10780;50.942;4.028;2022-10-31T07:54:16;14.60;99.90
21244;DHT22;10780;50.942;4.028;2022-10-31T07:56:42;14.70;99.90
21244;DHT22;10780;50.942;4.028;2022-10-31T07:59:07;14.90;99.90
21244;DHT22;10780;50.942;4.028;2022-10-31T08:01:33;15.00;99.90
21244;DHT22;10780;50.942;4.028;2022-10-31T08:03:58;15.00;99.90
21244;DHT22;10780;50.942;4.028;2022-10-31T08:06:24;14.90;99.90
21244;DHT22;10780;50.942;4.028;2022-10-31T08:08:50;14.80;99.90
21244;DHT22;10780;50.942;4.028;2022-10-31T08:11:15;14.90;99.90
21244;DHT22;10780;50.942;4.028;2022-10-31T08:13:41;15.10;99.90
21244;DHT22;10780;50.942;4.028;2022-10-31T08:16:08;15.10;99.90
21244;DHT22;10780;50.942;4.028;2022-10-31T08:18:33;15.30;99.90
21244;DHT22;10780;50.942;4.028;2022-10-31T08:20:59;15.60;99.90
21244;DHT22;10780;50.942;4.028;2022-10-31T08:23:24;15.70;99.90
21244;DHT22;10780;50.942;4.028;2022-10-31T08:25:50;15.80;99.90
21244;DHT22;10780;50.942;4.028;2022-10-31T08:28:16;15.90;99.90
21244;DHT22;10780;50.942;4.028;2022-10-31T08:30:41;16.00;99.90
21244;DHT22;10780;50.942;4.028;2022-10-31T08:33:13;15.90;99.90
21244;DHT22;10780;50.942;4.028;2022-10-31T08:35:39;16.10;99.90
21244;DHT22;10780;50.942;4.028;2022-10-31T08:38:05;16.30;99.90
21244;DHT22;10780;50.942;4.028;2022-10-31T08:40:32;16.40;99.90
21244;DHT22;10780;50.942;4.028;2022-10-31T08:43:14;16.50;99.90
21244;DHT22;10780;50.942;4.028;2022-10-31T08:45:40;16.50;99.90
21244;DHT22;10780;50.942;4.028;2022-10-31T08:48:10;16.50;99.90
21244;DHT22;10780;50.942;4.028;2022-10-31T08:50:36;16.40;99.90
21244;DHT22;10780;50.942;4.028;2022-10-31T08:53:11;16.30;99.90
21244;DHT22;10780;50.942;4.028;2022-10-31T08:55:38;16.20;99.90
21244;DHT22;10780;50.942;4.028;2022-10-31T08:58:06;16.20;99.90
21244;DHT22;10780;50.942;4.028;2022-10-31T09:00:33;16.00;99.90
21244;DHT22;10780;50.942;4.028;2022-10-31T09:03:01;16.00;99.90
21244;DHT22;10780;50.942;4.028;2022-10-31T09:05:28;16.10;99.90
21244;DHT22;10780;50.942;4.028;2022-10-31T09:07:58;16.20;99.90
21244;DHT22;10780;50.942;4.028;2022-10-31T09:10:25;16.20;99.90
21244;DHT22;10780;50.942;4.028;2022-10-31T09:12:58;16.20;99.90
21244;DHT22;10780;50.942;4.028;2022-10-31T09:15:25;16.20;99.90
21244;DHT22;10780;50.942;4.028;2022-10-31T09:17:50;16.20;99.90
21244;DHT22;10780;50.942;4.028;2022-10-31T09:20:16;16.30;99.90
21244;DHT22;10780;50.942;4.028;2022-10-31T09:22:42;16.40;99.90
21244;DHT22;10780;50.942;4.028;2022-10-31T09:25:08;16.10;99.90
21244;DHT22;10780;50.942;4.028;2022-10-31T09:27:33;16.20;99.90
21244;DHT22;10780;50.942;4.028;2022-10-31T09:29:59;16.30;99.90
21244;DHT22;10780;50.942;4.028;2022-10-31T09:32:24;16.40;99.90
21244;DHT22;10780;50.942;4.028;2022-10-31T09:34:50;16.50;99.90
21244;DHT22;10780;50.942;4.028;2022-10-31T09:37:15;16.60;99.90
21244;DHT22;10780;50.942;4.028;2022-10-31T09:39:41;16.80;99.90
21244;DHT22;10780;50.942;4.028;2022-10-31T09:45:53;17.10;99.90
21244;DHT22;10780;50.942;4.028;2022-10-31T09:50:22;17.20;99.90
21244;DHT22;10780;50.942;4.028;2022-10-31T09:53:02;17.20;99.90
21244;DHT22;10780;50.942;4.028;2022-10-31T09:55:48;17.20;99.90
21244;DHT22;10780;50.942;4.028;2022-10-31T09:58:25;17.30;99.90
21244;DHT22;10780;50.942;4.028;2022-10-31T10:00:53;17.40;99.90
21244;DHT22;10780;50.942;4.028;2022-10-31T10:03:56;17.50;99.90
21244;DHT22;10780;50.942;4.028;2022-10-31T10:06:25;17.70;99.90
21244;DHT22;10780;50.942;4.028;2022-10-31T10:08:52;17.90;99.90
21244;DHT22;10780;50.942;4.028;2022-10-31T10:11:33;18.10;99.90
21244;DHT22;10780;50.942;4.028;2022-10-31T10:22:09;18.50;99.90
21244;DHT22;10780;50.942;4.028;2022-10-31T10:24:59;18.40;99.90
21244;DHT22;10780;50.942;4.028;2022-10-31T10:27:49;18.50;99.90
21244;DHT22;10780;50.942;4.028;2022-10-31T10:30:21;18.60;99.90
21244;DHT22;10780;50.942;4.028;2022-10-31T10:32:53;18.60;99.90
21244;DHT22;10780;50.942;4.028;2022-10-31T10:35:31;18.50;99.90
21244;DHT22;10780;50.942;4.028;2022-10-31T10:41:26;18.40;99.90
21244;DHT22;10780;50.942;4.028;2022-10-31T10:43:53;18.30;99.90
21244;DHT22;10780;50.942;4.028;2022-10-31T10:46:24;18.30;99.90
21244;DHT22;10780;50.942;4.028;2022-10-31T10:57:22;18.20;99.90
21244;DHT22;10780;50.942;4.028;2022-10-31T10:59:48;18.20;99.90
21244;DHT22;10780;50.942;4.028;2022-10-31T11:02:21;18.10;99.90
21244;DHT22;10780;50.942;4.028;2022-10-31T11:04:58;18.10;99.90
21244;DHT22;10780;50.942;4.028;2022-10-31T11:07:25;18.10;99.90
21244;DHT22;10780;50.942;4.028;2022-10-31T11:10:02;18.00;99.90
21244;DHT22;10780;50.942;4.028;2022-10-31T11:12:30;18.00;99.90
21244;DHT22;10780;50.942;4.028;2022-10-31T11:15:07;18.00;99.90
21244;DHT22;10780;50.942;4.028;2022-10-31T11:17:38;18.00;99.90
21244;DHT22;10780;50.942;4.028;2022-10-31T11:20:32;17.80;99.90
21244;DHT22;10780;50.942;4.028;2022-10-31T11:23:17;18.00;99.90
21244;DHT22;10780;50.942;4.028;2022-10-31T11:26:00;18.00;99.90
21244;DHT22;10780;50.942;4.028;2022-10-31T11:28:27;18.30;99.90
21244;DHT22;10780;50.942;4.028;2022-10-31T11:30:59;18.50;99.90
21244;DHT22;10780;50.942;4.028;2022-10-31T11:36:28;18.90;99.90
21244;DHT22;10780;50.942;4.028;2022-10-31T11:38:54;18.90;99.90
21244;DHT22;10780;50.942;4.028;2022-10-31T11:41:32;18.90;99.90
21244;DHT22;10780;50.942;4.028;2022-10-31T11:44:22;18.90;99.90
21244;DHT22;10780;50.942;4.028;2022-10-31T11:46:54;18.50;99.90
21244;DHT22;10780;50.942;4.028;2022-10-31T11:49:39;18.30;99.90
21244;DHT22;10780;50.942;4.028;2022-10-31T11:52:12;18.30;99.90
21244;DHT22;10780;50.942;4.028;2022-10-31T11:54:52;18.40;99.90
21244;DHT22;10780;50.942;4.028;2022-10-31T11:57:30;18.50;99.90
21244;DHT22;10780;50.942;4.028;2022-10-31T11:59:58;18.60;99.90
21244;DHT22;10780;50.942;4.028;2022-10-31T12:02:24;18.60;99.90
21244;DHT22;10780;50.942;4.028;2022-10-31T12:07:23;18.60;99.90
21244;DHT22;10780;50.942;4.028;2022-10-31T12:09:49;18.60;99.90
21244;DHT22;10780;50.942;4.028;2022-10-31T12:12:18;18.60;99.90
21244;DHT22;10780;50.942;4.028;2022-10-31T12:15:04;18.70;99.90
21244;DHT22;10780;50.942;4.028;2022-10-31T12:20:48;19.10;99.90
21244;DHT22;10780;50.942;4.028;2022-10-31T12:23:51;19.30;99.90
21244;DHT22;10780;50.942;4.028;2022-10-31T12:26:59;19.40;99.90
21244;DHT22;10780;50.942;4.028;2022-10-31T12:45:51;19.70;99.90
21244;DHT22;10780;50.942;4.028;2022-10-31T12:54:00;19.60;99.90
21244;DHT22;10780;50.942;4.028;2022-10-31T12:59:28;19.70;99.90
21244;DHT22;10780;50.942;4.028;2022-10-31T13:02:00;19.80;99.90
21244;DHT22;10780;50.942;4.028;2022-10-31T13:07:15;20.00;99.90
21244;DHT22;10780;50.942;4.028;2022-10-31T13:09:58;20.20;99.90
21244;DHT22;10780;50.942;4.028;2022-10-31T13:12:27;20.40;99.90
21244;DHT22;10780;50.942;4.028;2022-10-31T13:14:58;20.60;99.90
21244;DHT22;10780;50.942;4.028;2022-10-31T13:17:34;20.80;99.90
21244;DHT22;10780;50.942;4.028;2022-10-31T13:22:49;20.80;99.90
21244;DHT22;10780;50.942;4.028;2022-10-31T13:25:28;21.10;99.90
21244;DHT22;10780;50.942;4.028;2022-10-31T13:28:03;21.10;99.90
21244;DHT22;10780;50.942;4.028;2022-10-31T13:30:33;21.40;99.90
21244;DHT22;10780;50.942;4.028;2022-10-31T13:33:26;21.10;99.90
21244;DHT22;10780;50.942;4.028;2022-10-31T13:36:24;20.90;99.90
21244;DHT22;10780;50.942;4.028;2022-10-31T13:38:58;20.70;99.90
21244;DHT22;10780;50.942;4.028;2022-10-31T13:46:52;20.20;99.90
21244;DHT22;10780;50.942;4.028;2022-10-31T13:57:19;20.30;99.90
21244;DHT22;10780;50.942;4.028;2022-10-31T13:59:49;20.30;99.90
21244;DHT22;10780;50.942;4.028;2022-10-31T14:02:18;20.30;99.90
21244;DHT22;10780;50.942;4.028;2022-10-31T14:04:51;20.20;99.90
21244;DHT22;10780;50.942;4.028;2022-10-31T14:07:24;20.30;99.90
21244;DHT22;10780;50.942;4.028;2022-10-31T14:10:06;20.30;99.90
21244;DHT22;10780;50.942;4.028;2022-10-31T14:12:43;20.40;99.90
21244;DHT22;10780;50.942;4.028;2022-10-31T14:15:19;20.30;99.90
21244;DHT22;10780;50.942;4.028;2022-10-31T14:18:03;20.30;99.90
21244;DHT22;10780;50.942;4.028;2022-10-31T14:20:41;20.30;99.90
21244;DHT22;10780;50.942;4.028;2022-10-31T14:26:30;19.80;99.90
21244;DHT22;10780;50.942;4.028;2022-10-31T14:29:37;19.70;99.90
21244;DHT22;10780;50.942;4.028;2022-10-31T14:34:52;19.70;99.90
21244;DHT22;10780;50.942;4.028;2022-10-31T14:40:29;19.90;99.90
21244;DHT22;10780;50.942;4.028;2022-10-31T14:43:17;20.20;99.90
21244;DHT22;10780;50.942;4.028;2022-10-31T14:48:48;20.40;99.90
21244;DHT22;10780;50.942;4.028;2022-10-31T14:51:44;20.20;99.90
21244;DHT22;10780;50.942;4.028;2022-10-31T14:54:15;20.10;99.90
21244;DHT22;10780;50.942;4.028;2022-10-31T14:56:55;19.80;99.90
21244;DHT22;10780;50.942;4.028;2022-10-31T14:59:28;19.70;99.90
21244;DHT22;10780;50.942;4.028;2022-10-31T15:04:35;19.80;99.90
21244;DHT22;10780;50.942;4.028;2022-10-31T15:07:23;19.70;99.90
21244;DHT22;10780;50.942;4.028;2022-10-31T15:10:03;19.60;99.90
21244;DHT22;10780;50.942;4.028;2022-10-31T15:12:31;19.50;99.90
21244;DHT22;10780;50.942;4.028;2022-10-31T15:14:57;19.60;99.90
21244;DHT22;10780;50.942;4.028;2022-10-31T15:17:25;19.60;99.90
21244;DHT22;10780;50.942;4.028;2022-10-31T15:19:52;19.60;99.90
21244;DHT22;10780;50.942;4.028;2022-10-31T15:22:19;19.50;99.90
21244;DHT22;10780;50.942;4.028;2022-10-31T15:24:46;19.30;99.90
21244;DHT22;10780;50.942;4.028;2022-10-31T15:27:15;19.20;99.90
21244;DHT22;10780;50.942;4.028;2022-10-31T15:29:53;19.20;99.90
21244;DHT22;10780;50.942;4.028;2022-10-31T15:32:27;19.10;99.90
21244;DHT22;10780;50.942;4.028;2022-10-31T15:34:54;19.00;99.90
21244;DHT22;10780;50.942;4.028;2022-10-31T15:37:22;19.00;99.90
21244;DHT22;10780;50.942;4.028;2022-10-31T15:39:50;19.10;99.90
21244;DHT22;10780;50.942;4.028;2022-10-31T15:44:53;19.00;99.90
21244;DHT22;10780;50.942;4.028;2022-10-31T15:47:22;19.10;99.90
21244;DHT22;10780;50.942;4.028;2022-10-31T15:49:54;19.10;99.90
21244;DHT22;10780;50.942;4.028;2022-10-31T15:52:37;19.20;99.90
21244;DHT22;10780;50.942;4.028;2022-10-31T15:57:45;18.80;99.90
21244;DHT22;10780;50.942;4.028;2022-10-31T16:00:34;18.70;99.90
21244;DHT22;10780;50.942;4.028;2022-10-31T16:05:43;18.60;99.90
21244;DHT22;10780;50.942;4.028;2022-10-31T16:08:34;18.50;99.90
21244;DHT22;10780;50.942;4.028;2022-10-31T16:13:34;18.40;99.90
21244;DHT22;10780;50.942;4.028;2022-10-31T16:16:03;18.30;99.90
21244;DHT22;10780;50.942;4.028;2022-10-31T16:18:35;18.40;99.90
21244;DHT22;10780;50.942;4.028;2022-10-31T16:21:02;18.30;99.90
21244;DHT22;10780;50.942;4.028;2022-10-31T16:23:29;18.20;99.90
21244;DHT22;10780;50.942;4.028;2022-10-31T16:25:54;18.10;99.90
21244;DHT22;10780;50.942;4.028;2022-10-31T16:28:22;18.10;99.90
21244;DHT22;10780;50.942;4.028;2022-10-31T16:30:50;17.90;99.90
21244;DHT22;10780;50.942;4.028;2022-10-31T16:33:34;17.70;99.90
21244;DHT22;10780;50.942;4.028;2022-10-31T16:38:53;17.70;99.90
21244;DHT22;10780;50.942;4.028;2022-10-31T16:41:19;17.60;99.90
21244;DHT22;10780;50.942;4.028;2022-10-31T16:43:45;17.70;99.90
21244;DHT22;10780;50.942;4.028;2022-10-31T16:46:37;17.60;99.90
21244;DHT22;10780;50.942;4.028;2022-10-31T16:49:03;17.60;99.90
21244;DHT22;10780;50.942;4.028;2022-10-31T16:51:28;17.50;99.90
21244;DHT22;10780;50.942;4.028;2022-10-31T16:53:55;17.40;99.90
21244;DHT22;10780;50.942;4.028;2022-10-31T16:56:28;17.30;99.90
21244;DHT22;10780;50.942;4.028;2022-10-31T16:58:54;17.20;99.90
21244;DHT22;10780;50.942;4.028;2022-10-31T17:01:20;17.20;99.90
21244;DHT22;10780;50.942;4.028;2022-10-31T17:03:45;17.10;99.90
21244;DHT22;10780;50.942;4.028;2022-10-31T17:06:14;17.00;99.90
21244;DHT22;10780;50.942;4.028;2022-10-31T17:08:43;17.00;99.90
21244;DHT22;10780;50.942;4.028;2022-10-31T17:11:19;16.90;99.90
21244;DHT22;10780;50.942;4.028;2022-10-31T17:13:46;16.80;99.90
21244;DHT22;10780;50.942;4.028;2022-10-31T17:16:13;16.70;99.90
21244;DHT22;10780;50.942;4.028;2022-10-31T17:18:41;16.70;99.90
21244;DHT22;10780;50.942;4.028;2022-10-31T17:21:22;16.60;99.90
21244;DHT22;10780;50.942;4.028;2022-10-31T17:23:49;16.60;99.90
21244;DHT22;10780;50.942;4.028;2022-10-31T17:26:15;16.50;99.90
21244;DHT22;10780;50.942;4.028;2022-10-31T17:28:40;16.50;99.90
21244;DHT22;10780;50.942;4.028;2022-10-31T17:31:21;16.50;99.90
21244;DHT22;10780;50.942;4.028;2022-10-31T17:33:47;16.30;99.90
21244;DHT22;10780;50.942;4.028;2022-10-31T17:36:13;16.30;99.90
21244;DHT22;10780;50.942;4.028;2022-10-31T17:38:39;16.20;99.90
21244;DHT22;10780;50.942;4.028;2022-10-31T17:41:05;16.30;99.90
21244;DHT22;10780;50.942;4.028;2022-10-31T17:43:31;16.30;99.90
21244;DHT22;10780;50.942;4.028;2022-10-31T17:45:58;16.30;99.90
21244;DHT22;10780;50.942;4.028;2022-10-31T17:48:25;16.20;99.90
21244;DHT22;10780;50.942;4.028;2022-10-31T17:50:50;16.30;99.90
21244;DHT22;10780;50.942;4.028;2022-10-31T17:53:16;16.40;99.90
21244;DHT22;10780;50.942;4.028;2022-10-31T17:55:42;16.40;99.90
21244;DHT22;10780;50.942;4.028;2022-10-31T17:58:07;16.50;99.90
21244;DHT22;10780;50.942;4.028;2022-10-31T18:00:37;16.50;99.90
21244;DHT22;10780;50.942;4.028;2022-10-31T18:03:03;16.50;99.90
21244;DHT22;10780;50.942;4.028;2022-10-31T18:05:29;16.50;99.90